1935 NOT_NAMED (1935042S18120)


IBTrACS version v04r00. Visit IBTrACS website for data access.
Please direct all questions to the IBTrACS Q and A forum

Storm track - Intensity - Wind Radii - Intensity Data - Source Data - All data

Summary Information

Storm ID 1935042S18120
Start Feb 10 23Z
Landfall Feb 12 09Z
End Feb 12 13Z
ATCF IDs
Track status Best track data.

Storm track plot

Map of storm track

Intensity plots

No Intensity information for this storm


Radial wind information

No radial wind information for this storm


Position and Intensity Table

BASIN ISO_TIME_________ NATURE LAT LON
degrees north degrees east
SI 1935-02-10 23:00:00 NR -18.00 119.80
SI 1935-02-11 00:00:00 NR -18.08 119.70
SI 01:00:00 NR -17.63 118.95
SI 03:00:00 NR -17.66 118.62
SI 06:00:00 NR -17.82 118.25
SI 09:00:00 NR -18.06 118.00
SI 11:00:00 NR -18.31 117.92
SI 12:00:00 NR -18.42 117.86
SI 15:00:00 NR -18.77 117.70
SI 18:00:00 NR -19.05 117.51
SI 21:00:00 NR -19.34 117.38
SI 23:00:00 NR -19.52 117.38
SI 1935-02-12 00:00:00 NR -19.56 117.49
SI 01:00:00 NR -19.70 117.50
SI 03:00:00 NR -19.97 117.53
SI 06:00:00 NR -20.37 117.58
SI 07:00:00 NR -20.50 117.60
SI 09:00:00 NR -20.77 117.66
SI 12:00:00 NR -21.17 117.76
SI 13:00:00 NR -21.30 117.80

Source Information

Agency Information
USA
TOKYO
CMA
HKO
NEWDELHI
REUNION
BOM IDCKMSTM0S.csv:Line=861:unnamed
NADI
WELLINGTON
DS824
TD9636 cons_worldwide_trop_cyclone_18710101-19891231-006:Line=2013
TD9635
NEUMANN
MLC

All available IBTrACS Data

SEASON BASIN SUBBASIN ISO_TIME_________ NATURE LAT LON WMO AGENCY DIST2LAND LANDFALL IFLAG USA SSHS BOM LAT BOM LON TD9636 LAT TD9636 LON TD9636 STAGE STORM SPEED STORM DIR
Year degrees north degrees east km km 1 degrees north degrees east degrees north degrees east kts degrees
1935 SI WA 1935-02-10 23:00:00 NR -18.00 119.80 211 202 __________O___ -1 -18.00 119.80 7 8 228
1935 SI WA 1935-02-11 00:00:00 NR -18.08 119.70 207 207 __________P___ -1 -18.08 119.70 7 27 295
1935 SI WA 01:00:00 NR -17.63 118.95 bom 279 279 ______O___P___ -1 -16.00 117.00 -18.17 119.60 7 22 292
1935 SI WA 03:00:00 NR -17.66 118.62 273 267 ______P___P___ -1 -16.33 117.05 -18.33 119.40 7 8 253
1935 SI WA 06:00:00 NR -17.82 118.25 270 257 ______P___P___ -1 -16.81 117.12 -18.58 119.10 7 7 236
1935 SI WA 09:00:00 NR -18.06 118.00 251 235 ______P___P___ -1 -17.29 117.19 -18.83 118.80 7 7 213
1935 SI WA 11:00:00 NR -18.31 117.92 235 224 ______P___O___ -1 -17.61 117.24 -19.00 118.60 7 8 199
1935 SI WA 12:00:00 NR -18.42 117.86 224 183 ______P___P___ -1 -17.77 117.26 -19.08 118.47 7 8 204
1935 SI WA 15:00:00 NR -18.77 117.70 183 165 ______P___P___ -1 -18.24 117.32 -19.30 118.07 7 7 208
1935 SI WA 18:00:00 NR -19.05 117.51 158 143 ______P___P___ -1 -18.69 117.38 -19.53 117.67 7 6 208
1935 SI WA 21:00:00 NR -19.34 117.38 143 123 ______P___P___ -1 -19.14 117.44 -19.75 117.27 7 6 194
1935 SI WA 23:00:00 NR -19.52 117.38 123 118 ______P___O___ -1 -19.42 117.47 -19.90 117.00 7 5 157
1935 SI WA 1935-02-12 00:00:00 NR -19.56 117.49 108 98 ______P_______ -1 -19.56 117.49 7 7 147
1935 SI WA 01:00:00 NR -19.70 117.50 bom 98 79 ______O_______ -1 -19.70 117.50 7 8 173
1935 SI WA 03:00:00 NR -19.97 117.53 69 38 ______P_______ -1 -19.97 117.53 7 8 174
1935 SI WA 06:00:00 NR -20.37 117.58 33 30 ______P_______ -1 -20.37 117.58 7 8 173
1935 SI WA 07:00:00 NR -20.50 117.60 bom 30 10 ______O_______ -1 -20.50 117.60 7 8 169
1935 SI WA 09:00:00 NR -20.77 117.66 0 0 ______P_______ -1 -20.77 117.66 7 8 167
1935 SI WA 12:00:00 NR -21.17 117.76 0 0 ______P_______ -1 -21.17 117.76 8 166
1935 SI WA 13:00:00 NR -21.30 117.80 bom 0 ______O_______ -1 -21.30 117.80 8 168